Time;durP1;ratioP1;P1;durP2;ratioP2;P2;SDS_P1;SDS_P2;PMS_P1;PMS_P2;Temp;Humidity;BMP_temperature;BMP_pressure;BME280_temperature;BME280_humidity;BME280_pressure;Samples;Min_cycle;Max_cycle;Signal;HPM_P1;HPM_P2
2021/11/24 10:26:22;;;;;;;10.15;7.93;;;;;;;18.19;41.84;95566.88;5111389;27;20417;-76
2021/11/24 10:29:08;;;;;;;16.58;12.32;;;;;;;17.32;37.09;95562.28;5067927;28;20063;-83
2021/11/24 10:31:45;;;;;;;16.80;11.30;;;;;;;15.49;41.01;95561.09;5094936;28;20028;-76
2021/11/24 10:34:18;;;;;;;16.00;11.45;;;;;;;13.48;45.06;95564.13;5054056;28;20024;-80
2021/11/24 10:37:05;;;;;;;15.40;11.73;;;;;;;12.22;48.81;95562.91;5059503;28;20025;-80
2021/11/24 10:39:45;;;;;;;20.33;12.15;;;;;;;11.78;50.02;95557.13;5069118;28;20042;-80
2021/11/24 10:42:15;;;;;;;18.27;13.43;;;;;;;10.34;54.92;95563.00;5069604;28;20114;-79
2021/11/24 10:44:54;;;;;;;19.00;13.15;;;;;;;9.08;58.02;95544.69;5048227;28;20024;-80
2021/11/24 10:47:20;;;;;;;22.20;14.02;;;;;;;9.27;58.10;95538.56;5070748;28;20028;-80
2021/11/24 10:49:50;;;;;;;21.42;13.93;;;;;;;9.25;58.83;95550.94;5050019;28;20040;-78
2021/11/24 10:52:20;;;;;;;19.83;12.60;;;;;;;9.24;59.07;95562.28;5066647;28;20027;-79
2021/11/24 10:55:14;;;;;;;21.30;13.70;;;;;;;8.93;60.55;95556.56;5054024;22;20045;-80
2021/11/24 10:57:59;;;;;;;19.42;12.75;;;;;;;8.72;61.17;95554.16;4980517;28;20038;-76
2021/11/24 11:00:39;;;;;;;19.55;11.90;;;;;;;8.45;62.22;95549.72;4949909;28;20031;-76
2021/11/24 11:03:06;;;;;;;18.42;12.40;;;;;;;8.30;62.57;95544.13;4940331;28;20042;-78
2021/11/24 11:05:31;;;;;;;21.65;13.48;;;;;;;8.31;63.32;95545.78;4976136;28;20571;-77
2021/11/24 11:08:02;;;;;;;22.25;13.82;;;;;;;8.15;63.42;95548.09;4954295;28;20043;-78
2021/11/24 11:10:34;;;;;;;;;;;;;;;8.01;64.48;95550.19;4967211;28;20030;-75
2021/11/24 11:13:01;;;;;;;19.70;13.30;;;;;;;7.82;64.84;95550.19;4986555;28;19921;-75
2021/11/24 11:15:30;;;;;;;23.75;13.52;;;;;;;7.91;65.34;95546.75;4946288;28;20130;-77
2021/11/24 11:18:08;;;;;;;23.35;15.38;;;;;;;7.86;65.28;95543.75;4965327;28;20129;-75
2021/11/24 11:20:41;;;;;;;22.33;14.27;;;;;;;7.66;66.28;95547.31;4963235;28;20596;-77
2021/11/24 11:23:12;;;;;;;21.92;15.60;;;;;;;7.39;66.81;95534.03;4984265;28;20026;-78
2021/11/24 11:25:48;;;;;;;20.98;14.02;;;;;;;7.35;67.37;95526.66;5016820;23;20593;-80
2021/11/24 11:28:14;;;;;;;21.80;14.13;;;;;;;7.42;66.88;95531.16;5000083;28;20037;-77
2021/11/24 11:30:41;;;;;;;19.63;13.65;;;;;;;7.48;67.27;95536.75;5007381;28;20049;-79
2021/11/24 11:33:07;;;;;;;19.65;12.60;;;;;;;7.46;66.82;95520.50;4987269;28;20092;-77
2021/11/24 11:35:33;;;;;;;19.17;12.25;;;;;;;7.39;67.58;95523.63;4986874;28;20053;-77
2021/11/24 11:37:58;;;;;;;17.10;11.60;;;;;;;7.44;67.55;95523.22;4994358;28;20043;-78
2021/11/24 11:40:24;;;;;;;14.50;11.73;;;;;;;7.53;67.20;95527.59;4973009;28;20022;-77
2021/11/24 11:42:50;;;;;;;16.65;11.32;;;;;;;7.51;66.79;95521.72;4992824;28;20057;-78
2021/11/24 11:45:16;;;;;;;19.27;12.63;;;;;;;7.60;66.47;95527.88;5003000;28;20041;-78
2021/11/24 11:47:51;;;;;;;13.20;9.90;;;;;;;7.60;65.94;95510.53;4988932;28;20025;-80
2021/11/24 11:50:59;;;;;;;16.52;11.85;;;;;;;7.82;66.02;95525.00;4991697;28;20025;-78
2021/11/24 11:53:35;;;;;;;14.48;10.00;;;;;;;7.80;65.49;95520.91;4947438;28;20036;-79
2021/11/24 11:56:13;;;;;;;12.88;10.20;;;;;;;7.90;64.90;95521.72;5026644;23;20050;-78
2021/11/24 11:59:02;;;;;;;11.70;9.30;;;;;;;8.00;64.03;95519.97;5026662;28;20461;-81
2021/11/24 12:01:43;;;;;;;11.85;8.82;;;;;;;7.89;63.41;95519.25;5007831;28;20032;-79
2021/11/24 12:04:17;;;;;;;12.75;8.82;;;;;;;7.72;63.85;95518.16;5010666;28;20029;-81
2021/11/24 12:06:42;;;;;;;10.85;8.13;;;;;;;7.74;63.33;95519.69;4981906;28;20124;-80
2021/11/24 12:09:10;;;;;;;8.55;7.35;;;;;;;7.72;63.34;95502.59;5008671;28;20120;-81
2021/11/24 12:12:10;;;;;;;9.25;7.55;;;;;;;7.86;62.52;95520.38;5024323;28;20049;-78
2021/11/24 12:14:51;;;;;;;8.27;6.13;;;;;;;7.87;61.40;95522.03;5024344;28;20040;-79
2021/11/24 12:17:33;;;;;;;9.25;6.82;;;;;;;7.91;61.68;95517.34;5014604;28;20108;-79
2021/11/24 12:20:12;;;;;;;9.32;7.15;;;;;;;8.00;61.48;95517.34;4997647;28;20040;-78
2021/11/24 12:22:50;;;;;;;8.02;7.22;;;;;;;7.77;61.36;95513.41;5010682;28;20042;-79
2021/11/24 12:25:19;;;;;;;10.52;8.35;;;;;;;7.72;61.13;95510.38;5015309;23;20076;-80
2021/11/24 12:27:54;;;;;;;9.27;7.10;;;;;;;7.72;62.55;95515.56;5007448;28;20037;-77
2021/11/24 12:33:18;;;;;;;10.70;8.73;;;;;;;7.74;61.71;95513.66;5001142;28;20121;-78
2021/11/24 12:35:48;;;;;;;10.50;8.32;;;;;;;7.82;62.35;95508.59;4986644;28;20156;-82
2021/11/24 12:38:14;;;;;;;11.48;8.90;;;;;;;7.90;60.56;95513.94;4986180;28;20121;-78
2021/11/24 12:40:41;;;;;;;10.73;8.07;;;;;;;7.64;61.36;95505.88;4993593;28;20034;-82
2021/11/24 12:43:12;;;;;;;11.27;8.63;;;;;;;7.56;62.48;95506.53;4984841;28;20041;-78
2021/11/24 12:45:39;;;;;;;10.55;9.13;;;;;;;7.59;62.56;95503.69;5013082;28;20026;-82
2021/11/24 12:48:05;;;;;;;11.43;9.05;;;;;;;7.61;62.20;95487.97;4987232;28;20018;-81
2021/11/24 12:50:31;;;;;;;11.13;9.48;;;;;;;7.67;62.11;95504.78;5001715;28;20030;-82
2021/11/24 12:53:06;;;;;;;11.32;9.50;;;;;;;7.70;61.94;95507.13;5003883;28;20026;-82
2021/11/24 12:55:33;;;;;;;12.50;9.50;;;;;;;7.73;62.25;95499.03;5017360;22;20052;-81
2021/11/24 12:57:58;;;;;;;10.60;8.60;;;;;;;7.87;61.99;95510.78;4980840;28;20032;-82
2021/11/24 13:00:31;;;;;;;13.85;9.77;;;;;;;7.89;61.59;95506.28;4992353;28;20021;-81
2021/11/24 13:02:57;;;;;;;11.55;9.02;;;;;;;7.68;62.09;95504.66;5007046;28;20048;-82
2021/11/24 13:05:22;;;;;;;9.07;8.18;;;;;;;7.66;61.72;95506.56;4976458;28;20736;-81
2021/11/24 13:07:52;;;;;;;13.00;9.57;;;;;;;7.60;62.33;95499.31;4974931;28;20026;-83
2021/11/24 13:10:18;;;;;;;11.57;9.77;;;;;;;7.47;64.86;95498.75;5011444;28;20026;-85
2021/11/24 13:12:44;;;;;;;10.98;9.55;;;;;;;7.54;62.35;95500.69;5013038;28;20045;-86
2021/11/24 13:15:09;;;;;;;11.93;9.63;;;;;;;7.60;61.93;95494.13;5011131;28;20037;-83
2021/11/24 13:17:37;;;;;;;11.02;9.15;;;;;;;7.40;62.04;95501.09;5008669;28;20030;-80
2021/11/24 13:20:17;;;;;;;11.98;8.80;;;;;;;7.44;62.27;95507.66;4987396;28;20026;-84
2021/11/24 13:22:50;;;;;;;11.70;9.80;;;;;;;7.25;62.36;95497.25;5006885;28;20037;-84
2021/11/24 13:25:23;;;;;;;11.95;9.32;;;;;;;7.27;62.72;95501.34;4996507;23;20094;-83
2021/11/24 13:27:51;;;;;;;9.85;7.93;;;;;;;7.15;62.65;95498.06;4986967;28;20026;-80
2021/11/24 13:30:32;;;;;;;10.30;8.88;;;;;;;7.14;62.09;95499.00;4971121;28;20491;-80
2021/11/24 13:33:08;;;;;;;10.43;8.18;;;;;;;7.10;62.48;95502.00;5000190;28;20383;-81
2021/11/24 13:35:56;;;;;;;9.43;8.40;;;;;;;7.23;61.60;95502.56;4983819;28;20028;-77
2021/11/24 13:38:32;;;;;;;10.90;8.23;;;;;;;7.13;61.61;95505.16;4984671;28;20022;-77
2021/11/24 13:41:28;;;;;;;12.18;8.65;;;;;;;7.00;62.07;95496.81;4980591;28;20030;-80
2021/11/24 13:44:04;;;;;;;10.45;8.57;;;;;;;7.03;62.10;95493.94;4982166;28;20034;-83
2021/11/24 13:46:49;;;;;;;12.10;9.07;;;;;;;7.30;63.38;95503.66;4972145;28;20023;-80
2021/11/24 13:49:27;;;;;;;11.82;9.98;;;;;;;8.10;60.34;95501.72;4954600;28;20041;-79
2021/11/24 13:52:03;;;;;;;9.48;7.65;;;;;;;9.05;57.75;95497.31;4982229;28;20518;-80
2021/11/24 13:54:29;;;;;;;8.85;7.60;;;;;;;9.38;56.85;95503.69;4997098;22;20048;-81
2021/11/24 13:56:59;;;;;;;7.72;6.97;;;;;;;9.90;53.67;95501.25;5002785;28;20022;-82
2021/11/24 13:59:32;;;;;;;9.18;7.30;;;;;;;10.36;53.27;95503.69;4986420;28;20466;-80
2021/11/24 14:02:05;;;;;;;8.10;6.82;;;;;;;10.77;51.87;95501.31;4995132;28;20030;-83
2021/11/24 14:04:34;;;;;;;7.88;7.07;;;;;;;10.76;49.88;95504.06;4992153;28;20026;-80
2021/11/24 14:07:09;;;;;;;8.38;6.40;;;;;;;11.10;50.56;95501.44;4991955;28;20041;-79
2021/11/24 14:09:51;;;;;;;8.63;6.85;;;;;;;11.27;49.50;95504.94;4987878;28;20072;-79
2021/11/24 14:12:25;;;;;;;6.90;5.97;;;;;;;10.83;49.99;95500.69;5000640;28;20080;-78
2021/11/24 14:15:11;;;;;;;7.55;6.80;;;;;;;10.80;49.33;95501.00;4995620;28;20014;-77
2021/11/24 14:17:54;;;;;;;8.85;7.60;;;;;;;10.29;50.71;95507.88;4970388;28;20021;-77
2021/11/24 14:20:19;;;;;;;8.35;7.45;;;;;;;9.81;51.71;95504.72;4985174;28;20039;-82
2021/11/24 14:22:46;;;;;;;8.25;6.90;;;;;;;9.56;52.38;95515.91;4989703;28;22342;-80
2021/11/24 14:25:14;;;;;;;8.75;7.63;;;;;;;8.86;54.55;95512.06;5006774;22;20053;-79
2021/11/24 14:27:40;;;;;;;9.35;7.20;;;;;;;8.89;54.46;95512.75;5025514;28;21425;-80
2021/11/24 14:30:06;;;;;;;9.65;8.32;;;;;;;8.48;55.89;95520.00;4985094;28;20037;-81
2021/11/24 14:32:33;;;;;;;11.32;7.25;;;;;;;8.02;55.99;95499.84;5006652;28;20030;-80
2021/11/24 14:34:59;;;;;;;8.35;7.05;;;;;;;7.54;57.38;95511.09;4992838;28;20030;-81
2021/11/24 14:37:24;;;;;;;11.95;7.82;;;;;;;7.23;58.50;95513.75;4991328;28;20028;-81
2021/11/24 14:39:50;;;;;;;10.18;7.00;;;;;;;6.91;59.24;95508.78;4999583;28;20034;-81
2021/11/24 14:42:15;;;;;;;9.70;7.40;;;;;;;6.87;59.94;95496.22;4994000;28;20022;-81
2021/11/24 14:44:41;;;;;;;8.38;7.45;;;;;;;6.80;60.16;95504.53;4986869;28;20027;-80
2021/11/24 14:47:06;;;;;;;10.82;7.80;;;;;;;7.00;59.92;95499.38;5002420;28;20382;-81
2021/11/24 14:49:32;;;;;;;8.43;7.55;;;;;;;7.03;60.05;95503.50;5003947;28;20030;-80
2021/11/24 14:52:00;;;;;;;10.07;8.02;;;;;;;6.99;59.88;95505.53;4988724;28;20034;-81
2021/11/24 14:54:26;;;;;;;12.60;8.77;;;;;;;7.04;59.79;95508.56;5010172;23;20026;-80
2021/11/24 14:56:51;;;;;;;10.00;7.72;;;;;;;7.12;60.20;95507.88;5001015;28;20594;-80
2021/11/24 14:59:17;;;;;;;12.23;9.02;;;;;;;7.08;59.92;95517.69;4980550;28;20035;-81
2021/11/24 15:01:42;;;;;;;13.45;8.48;;;;;;;7.03;60.15;95506.91;4977535;28;20057;-81
2021/11/24 15:04:08;;;;;;;14.65;9.48;;;;;;;6.97;59.98;95505.66;4977594;28;20159;-79
2021/11/24 15:06:33;;;;;;;13.50;9.75;;;;;;;6.79;60.64;95500.28;5008625;28;20033;-80
2021/11/24 15:08:59;;;;;;;14.18;10.45;;;;;;;6.80;60.74;95514.09;4977297;28;20029;-79
2021/11/24 15:11:24;;;;;;;11.13;9.00;;;;;;;6.63;60.75;95519.91;5016746;28;20034;-80
2021/11/24 15:13:50;;;;;;;16.08;9.75;;;;;;;6.65;60.71;95526.59;4982663;28;20036;-80
2021/11/24 15:16:17;;;;;;;11.00;9.32;;;;;;;6.55;61.43;95521.34;4979777;28;20450;-80
2021/11/24 15:18:42;;;;;;;9.65;7.63;;;;;;;6.59;61.25;95508.94;5012036;28;20140;-81
2021/11/24 15:21:08;;;;;;;12.07;9.38;;;;;;;6.33;61.39;95505.97;4981871;28;20082;-79
2021/11/24 15:23:33;;;;;;;12.77;9.10;;;;;;;6.49;61.12;95513.25;5028080;28;20105;-79
2021/11/24 15:25:59;;;;;;;9.40;8.40;;;;;;;6.40;61.43;95507.06;5029132;23;20053;-78
2021/11/24 15:28:25;;;;;;;13.65;9.38;;;;;;;6.49;61.17;95514.06;5012338;28;20029;-78
2021/11/24 15:30:51;;;;;;;10.93;8.43;;;;;;;6.50;61.52;95509.72;5000353;28;20039;-82
2021/11/24 15:33:17;;;;;;;12.82;9.07;;;;;;;6.36;61.31;95508.28;4997521;28;20033;-78
2021/11/24 15:35:42;;;;;;;11.52;8.52;;;;;;;6.26;61.36;95512.63;4996419;28;20029;-79
2021/11/24 15:38:11;;;;;;;12.63;8.38;;;;;;;6.34;60.75;95505.84;5017250;28;20398;-79
2021/11/24 15:40:37;;;;;;;9.77;7.53;;;;;;;6.27;59.97;95498.69;4996105;28;20532;-79
2021/11/24 15:43:03;;;;;;;9.70;7.15;;;;;;;6.21;59.73;95510.41;5011899;28;20029;-79
2021/11/24 15:45:29;;;;;;;8.95;7.38;;;;;;;6.04;60.62;95514.41;5030618;28;20112;-79
2021/11/24 15:47:54;;;;;;;10.60;6.93;;;;;;;6.18;59.98;95518.41;5011202;28;20032;-79
2021/11/24 15:50:20;;;;;;;11.75;8.18;;;;;;;5.93;60.85;95502.28;5013149;28;20116;-79
2021/11/24 15:52:45;;;;;;;10.27;8.02;;;;;;;5.87;60.83;95489.03;5009018;28;20029;-79
2021/11/24 15:55:11;;;;;;;12.27;7.93;;;;;;;5.86;61.14;95488.22;5016153;23;20566;-80
2021/11/24 15:57:38;;;;;;;10.57;7.78;;;;;;;5.96;61.16;95512.41;4976949;28;20036;-77
2021/11/24 16:00:05;;;;;;;13.77;8.02;;;;;;;5.93;61.65;95515.25;4994922;28;20036;-80
2021/11/24 16:02:34;;;;;;;12.50;8.50;;;;;;;5.83;61.58;95508.34;4977262;28;20422;-78
2021/11/24 16:05:00;;;;;;;10.00;8.60;;;;;;;5.80;61.82;95506.84;4994764;28;20044;-76
2021/11/24 16:07:25;;;;;;;11.45;8.70;;;;;;;5.78;61.34;95498.38;4981710;28;20029;-80
2021/11/24 16:09:51;;;;;;;13.93;8.80;;;;;;;5.84;61.96;95507.38;4994522;28;20061;-80
2021/11/24 16:12:16;;;;;;;9.82;7.95;;;;;;;5.86;61.93;95510.69;5000325;28;20417;-79
2021/11/24 16:14:42;;;;;;;11.30;8.98;;;;;;;5.83;61.44;95510.94;5032746;28;20021;-78
2021/11/24 16:17:07;;;;;;;13.07;9.27;;;;;;;5.91;61.59;95514.53;4993835;28;20034;-79
2021/11/24 16:19:33;;;;;;;11.52;9.32;;;;;;;5.76;61.57;95510.63;4995922;28;20025;-76
2021/11/24 16:21:58;;;;;;;13.68;9.88;;;;;;;5.69;61.56;95501.72;4996126;28;20025;-78
2021/11/24 16:24:24;;;;;;;11.90;8.27;;;;;;;5.69;62.09;95512.06;4987098;23;20036;31
2021/11/24 16:26:50;;;;;;;17.13;10.93;;;;;;;5.53;62.60;95515.91;4992332;28;20305;-81
2021/11/24 16:29:16;;;;;;;10.40;8.27;;;;;;;5.69;62.98;95520.66;4966384;28;20032;-79
2021/11/24 16:31:41;;;;;;;14.70;9.77;;;;;;;5.61;62.99;95509.28;4985043;28;20079;-78
2021/11/24 16:34:08;;;;;;;12.60;9.13;;;;;;;5.78;62.41;95512.13;4996607;28;20105;-83
2021/11/24 16:36:33;;;;;;;11.45;8.68;;;;;;;5.73;62.21;95524.66;4977145;28;20033;-80
2021/11/24 16:38:59;;;;;;;11.77;9.70;;;;;;;5.54;62.40;95503.78;5008272;28;20100;-80
2021/11/24 16:41:24;;;;;;;11.35;9.07;;;;;;;5.63;62.43;95517.75;5009771;28;20040;-79
2021/11/24 16:43:50;;;;;;;12.20;9.13;;;;;;;5.55;62.93;95513.19;4990509;28;20021;-78
2021/11/24 16:46:16;;;;;;;15.55;9.25;;;;;;;5.52;62.58;95521.19;4975721;28;20026;-80
2021/11/24 16:48:41;;;;;;;15.18;10.43;;;;;;;5.40;62.92;95519.59;5006238;28;20072;-80
2021/11/24 16:51:07;;;;;;;11.65;8.77;;;;;;;5.26;62.62;95495.63;4965514;28;20036;-81
2021/11/24 16:53:33;;;;;;;13.23;9.38;;;;;;;5.41;62.29;95506.53;4997441;28;20021;-81
2021/11/24 16:55:58;;;;;;;12.38;7.85;;;;;;;5.54;62.02;95517.53;4996741;23;20451;-80
2021/11/24 16:58:23;;;;;;;11.80;9.05;;;;;;;5.50;61.65;95515.31;5003203;28;20380;-79
2021/11/24 17:00:49;;;;;;;11.18;8.70;;;;;;;5.48;62.21;95512.84;5001266;28;20034;-79
2021/11/24 17:03:15;;;;;;;12.20;8.73;;;;;;;5.40;62.37;95511.81;5010155;28;20026;-79
2021/11/24 17:05:41;;;;;;;11.73;8.45;;;;;;;5.27;62.92;95515.41;5009174;28;20026;-80
2021/11/24 17:08:06;;;;;;;15.63;8.65;;;;;;;5.18;62.59;95510.13;5022129;28;20402;-79
2021/11/24 17:10:32;;;;;;;8.90;7.85;;;;;;;5.02;63.20;95506.16;4990103;28;20026;-79
2021/11/24 17:12:59;;;;;;;10.20;8.30;;;;;;;5.03;63.75;95517.31;4977040;28;20022;-80
2021/11/24 17:15:27;;;;;;;13.60;9.48;;;;;;;4.99;63.40;95503.00;5010431;28;20025;-77
2021/11/24 17:17:56;;;;;;;10.70;7.95;;;;;;;4.85;63.78;95502.31;4994403;28;20026;-76
2021/11/24 17:20:26;;;;;;;13.85;8.63;;;;;;;4.91;63.93;95507.00;4990004;28;20029;-78
2021/11/24 17:23:04;;;;;;;10.80;8.25;;;;;;;4.94;63.74;95506.78;4987640;28;20168;-76
2021/11/24 17:25:30;;;;;;;13.80;9.30;;;;;;;4.96;63.41;95491.13;4996660;23;20057;-82
2021/11/24 17:27:56;;;;;;;14.70;9.07;;;;;;;4.98;62.91;95494.41;4963633;28;20018;-79
2021/11/24 17:30:22;;;;;;;14.05;9.20;;;;;;;5.05;62.76;95505.94;4977425;28;20037;-78
2021/11/24 17:32:47;;;;;;;12.95;8.73;;;;;;;5.09;62.95;95502.13;4978584;28;20028;-82
2021/11/24 17:35:13;;;;;;;14.68;8.90;;;;;;;5.18;62.79;95515.31;4976324;28;20418;-77
2021/11/24 17:37:42;;;;;;;11.48;8.55;;;;;;;5.24;62.40;95515.63;4992413;28;20100;-79
2021/11/24 17:40:10;;;;;;;12.15;8.23;;;;;;;5.30;62.21;95514.34;4988046;28;20032;-79
2021/11/24 17:42:35;;;;;;;14.10;8.85;;;;;;;5.39;61.98;95513.59;5004700;28;20048;-78
2021/11/24 17:45:01;;;;;;;11.00;8.55;;;;;;;5.32;61.86;95512.44;4987633;28;20434;-78
2021/11/24 17:47:27;;;;;;;12.02;8.32;;;;;;;5.34;61.90;95495.03;5000688;28;20018;-79
2021/11/24 17:49:53;;;;;;;11.57;8.25;;;;;;;5.39;61.92;95500.66;4963919;28;20190;-80
2021/11/24 17:52:18;;;;;;;14.65;9.85;;;;;;;5.35;61.86;95494.06;4975561;28;20098;-80
2021/11/24 17:54:44;;;;;;;13.45;8.82;;;;;;;5.19;62.21;95499.66;4975730;23;20041;-76
2021/11/24 17:57:10;;;;;;;14.70;9.18;;;;;;;5.12;62.44;95488.16;4994063;28;20439;-76
2021/11/24 17:59:35;;;;;;;12.25;8.85;;;;;;;5.06;62.98;95492.06;4977233;28;20422;-75
2021/11/24 18:02:01;;;;;;;12.68;8.52;;;;;;;5.03;63.11;95492.31;4965457;28;20064;-75
2021/11/24 18:04:27;;;;;;;11.68;7.55;;;;;;;5.02;62.98;95484.66;4995710;28;20037;-76
2021/11/24 18:06:52;;;;;;;10.50;7.55;;;;;;;5.00;63.22;95487.34;4994441;28;20040;-77
2021/11/24 18:09:18;;;;;;;12.35;8.00;;;;;;;4.86;63.44;95470.34;5010683;28;20057;-76
2021/11/24 18:11:43;;;;;;;9.98;7.63;;;;;;;5.01;63.29;95483.84;4995839;28;20025;-77
2021/11/24 18:14:11;;;;;;;12.10;8.27;;;;;;;5.19;62.15;95485.91;5009078;28;20029;-76
2021/11/24 18:16:37;;;;;;;11.32;7.80;;;;;;;5.25;62.01;95493.19;5030083;28;20039;-76
2021/11/24 18:19:03;;;;;;;9.73;6.20;;;;;;;5.24;62.19;95494.13;5029294;28;20047;-76
2021/11/24 18:21:29;;;;;;;10.55;6.93;;;;;;;5.22;62.37;95481.28;4995512;28;20033;-77
2021/11/24 18:23:57;;;;;;;8.43;7.18;;;;;;;5.39;62.14;95498.06;4986297;28;20037;-77
2021/11/24 18:26:23;;;;;;;10.32;7.57;;;;;;;5.58;61.92;95490.47;5042142;23;20060;-77
2021/11/24 18:28:48;;;;;;;11.32;8.55;;;;;;;5.75;61.10;95486.50;5034794;28;20021;-77
2021/11/24 18:31:14;;;;;;;12.93;8.10;;;;;;;5.67;60.82;95480.31;5016637;28;20417;-78
2021/11/24 18:33:39;;;;;;;11.82;7.88;;;;;;;5.79;60.64;95481.88;5028123;28;20405;-76
2021/11/24 18:36:05;;;;;;;12.77;8.60;;;;;;;5.83;60.69;95482.44;5030404;28;20021;-76
2021/11/24 18:38:30;;;;;;;12.25;9.27;;;;;;;5.88;60.35;95477.72;5050217;28;20013;-76
2021/11/24 18:40:57;;;;;;;13.05;9.18;;;;;;;5.84;60.54;95484.09;5036779;28;20028;-77
2021/11/24 18:43:22;;;;;;;12.77;8.25;;;;;;;5.75;60.38;95481.31;5020691;28;20039;-77
2021/11/24 18:45:48;;;;;;;12.95;8.52;;;;;;;5.84;60.04;95477.16;5034894;28;20025;-77
2021/11/24 18:48:13;;;;;;;12.05;9.10;;;;;;;5.79;60.43;95481.88;5056045;28;20044;-75
2021/11/24 18:50:39;;;;;;;12.30;9.00;;;;;;;5.47;60.89;95481.94;5051083;28;20402;-77
2021/11/24 18:53:04;;;;;;;11.77;7.95;;;;;;;5.60;61.07;95481.72;5057638;28;20107;-77
2021/11/24 18:55:30;;;;;;;14.10;8.05;;;;;;;5.69;60.41;95476.63;5034717;22;20058;-77
2021/11/24 18:57:56;;;;;;;9.88;7.55;;;;;;;5.72;60.30;95467.78;4978022;28;20033;-77
2021/11/24 19:00:21;;;;;;;10.00;6.82;;;;;;;5.97;59.83;95477.00;5004377;28;20410;-77
2021/11/24 19:02:47;;;;;;;12.82;7.85;;;;;;;6.05;59.67;95473.75;4965238;28;20029;-77
2021/11/24 19:05:13;;;;;;;9.75;7.28;;;;;;;6.16;59.16;95477.06;4981885;28;20029;-77
2021/11/24 19:07:39;;;;;;;10.52;7.20;;;;;;;6.28;58.84;95475.25;4998323;28;20030;-77
2021/11/24 19:10:05;;;;;;;10.32;7.60;;;;;;;6.32;58.70;95476.63;4987894;28;20021;-77
2021/11/24 19:12:31;;;;;;;11.18;8.23;;;;;;;6.23;59.05;95467.06;4998049;28;20459;-75
2021/11/24 19:14:59;;;;;;;11.68;7.32;;;;;;;6.38;58.75;95473.53;4955957;28;20049;-76
2021/11/24 19:17:24;;;;;;;13.18;8.57;;;;;;;6.31;58.64;95474.97;4982062;28;20032;-77
2021/11/24 19:19:50;;;;;;;10.20;7.53;;;;;;;6.19;58.84;95471.66;4962881;28;20045;-77
2021/11/24 19:22:15;;;;;;;13.75;9.20;;;;;;;6.25;58.83;95475.47;4978432;28;20041;-78
2021/11/24 19:24:41;;;;;;;11.13;8.00;;;;;;;6.29;59.00;95471.69;4978697;28;20022;-77
2021/11/24 19:27:08;;;;;;;13.85;7.68;;;;;;;6.20;59.15;95472.47;5046193;23;20037;-77
2021/11/24 19:29:33;;;;;;;12.00;7.97;;;;;;;6.25;59.31;95467.72;5039353;28;20516;-78
2021/11/24 19:31:59;;;;;;;9.52;7.18;;;;;;;6.34;58.90;95477.31;5056659;28;20059;-77
2021/11/24 19:34:24;;;;;;;13.00;8.80;;;;;;;6.45;58.77;95485.94;5057228;28;20013;-77
2021/11/24 19:36:50;;;;;;;11.75;8.65;;;;;;;6.47;58.54;95478.88;5055644;28;20029;-78
2021/11/24 19:39:15;;;;;;;11.25;8.30;;;;;;;6.31;59.03;95484.53;5039745;28;20024;-77
2021/11/24 19:41:44;;;;;;;10.63;7.65;;;;;;;6.40;58.65;95478.56;5057680;28;20434;-76
2021/11/24 19:44:13;;;;;;;10.70;8.35;;;;;;;6.45;58.78;95479.00;5038763;28;20211;-76
2021/11/24 19:46:39;;;;;;;11.57;7.40;;;;;;;6.55;58.40;95482.44;5050608;28;20554;-77
2021/11/24 19:49:04;;;;;;;11.40;8.48;;;;;;;6.60;58.22;95480.31;5055443;28;20021;-77
2021/11/24 19:51:30;;;;;;;13.55;9.35;;;;;;;6.68;57.89;95478.81;5031928;28;20036;-75
2021/11/24 19:53:55;;;;;;;14.15;9.70;;;;;;;6.67;58.18;95485.78;5047097;28;20036;-77
2021/11/24 19:56:25;;;;;;;12.23;8.10;;;;;;;6.76;57.68;95476.38;5056723;23;20433;-76
2021/11/24 19:58:54;;;;;;;11.40;9.02;;;;;;;6.79;58.11;95470.94;5040514;28;20493;-76
2021/11/24 20:01:20;;;;;;;11.55;8.43;;;;;;;6.81;58.25;95477.63;5040040;28;20509;-76
2021/11/24 20:03:46;;;;;;;13.95;10.25;;;;;;;6.80;58.41;95470.81;5039311;28;20029;-75
2021/11/24 20:06:12;;;;;;;13.20;9.05;;;;;;;6.90;58.14;95472.59;5039851;28;20059;-76
2021/11/24 20:08:38;;;;;;;12.65;8.55;;;;;;;6.89;58.18;95464.00;5056537;28;20052;-76
2021/11/24 20:11:03;;;;;;;11.65;8.15;;;;;;;6.95;57.05;95475.59;5030464;28;20025;-76
2021/11/24 20:13:29;;;;;;;13.23;8.73;;;;;;;6.97;57.04;95471.09;5036388;28;20040;-77
2021/11/24 20:15:55;;;;;;;12.00;9.43;;;;;;;6.92;56.86;95468.91;5020467;28;20036;-76
2021/11/24 20:18:21;;;;;;;11.88;8.52;;;;;;;6.94;57.25;95467.00;5020143;28;20111;-76
2021/11/24 20:20:46;;;;;;;11.70;9.07;;;;;;;6.95;57.68;95463.47;5029998;28;20103;-77
2021/11/24 20:23:12;;;;;;;14.15;9.30;;;;;;;7.01;57.42;95467.28;5039631;28;20044;-76
2021/11/24 20:25:37;;;;;;;14.68;8.45;;;;;;;7.00;57.53;95463.06;5060094;23;20052;-76
2021/11/24 20:28:04;;;;;;;13.30;9.57;;;;;;;6.98;57.29;95458.00;5039680;28;20020;-76
2021/11/24 20:30:30;;;;;;;14.50;10.38;;;;;;;6.91;57.16;95463.84;5023354;28;20512;-76
2021/11/24 20:32:56;;;;;;;14.57;8.77;;;;;;;6.98;57.32;95468.38;5022756;28;20024;-76
2021/11/24 20:35:22;;;;;;;12.05;8.82;;;;;;;7.06;57.17;95459.91;5039601;28;20028;-76
2021/11/24 20:37:47;;;;;;;14.85;9.85;;;;;;;6.97;57.39;95461.53;5039323;28;20024;-77
2021/11/24 20:40:13;;;;;;;14.20;9.95;;;;;;;7.05;56.81;95457.47;5039459;28;20024;-80
2021/11/24 20:42:41;;;;;;;10.90;8.57;;;;;;;6.80;57.42;95457.84;5022863;28;20024;-80
2021/11/24 20:45:11;;;;;;;13.52;9.27;;;;;;;6.85;57.09;95459.22;5023765;28;20017;-79
2021/11/24 20:47:36;;;;;;;13.73;9.20;;;;;;;6.89;57.58;95469.19;5039873;28;20032;-78
2021/11/24 20:50:02;;;;;;;10.13;8.23;;;;;;;6.87;57.44;95457.31;5018564;28;20045;-78
2021/11/24 20:52:29;;;;;;;14.65;9.23;;;;;;;6.67;57.75;95449.47;5007950;28;20542;-79
2021/11/24 20:54:54;;;;;;;12.05;9.57;;;;;;;6.67;58.11;95459.00;5003366;28;20048;-79
2021/11/24 20:57:20;;;;;;;14.13;9.70;;;;;;;6.34;58.41;95464.38;5063501;23;20051;-79
2021/11/24 20:59:47;;;;;;;14.73;9.55;;;;;;;6.49;58.51;95464.00;5042678;28;20024;-79
2021/11/24 21:02:15;;;;;;;13.00;8.05;;;;;;;6.57;58.34;95458.97;5059184;28;20034;-81
2021/11/24 21:04:46;;;;;;;16.40;10.40;;;;;;;6.45;58.29;95465.22;5059919;28;20108;-79
2021/11/24 21:07:11;;;;;;;14.45;9.57;;;;;;;5.97;59.10;95446.72;5059966;28;20024;-79
2021/11/24 21:09:37;;;;;;;16.05;10.50;;;;;;;6.25;59.37;95462.53;5058413;28;20020;-78
2021/11/24 21:12:02;;;;;;;15.82;10.80;;;;;;;6.12;59.19;95446.38;5059246;28;20502;-79
2021/11/24 21:14:28;;;;;;;14.52;10.43;;;;;;;6.08;59.17;95450.16;5042386;28;20020;-79
2021/11/24 21:16:53;;;;;;;13.68;9.27;;;;;;;6.22;59.04;95451.63;5042385;28;20463;-78
2021/11/24 21:19:19;;;;;;;12.68;9.05;;;;;;;6.35;59.00;95449.63;5059047;28;20028;-80
2021/11/24 21:21:44;;;;;;;13.25;8.63;;;;;;;6.40;58.48;95448.25;5037836;28;20016;-79
2021/11/24 21:24:10;;;;;;;16.27;11.15;;;;;;;6.38;58.56;95433.81;5022393;28;20078;-79
2021/11/24 21:26:36;;;;;;;15.60;10.05;;;;;;;6.55;57.79;95445.31;5004848;23;20049;-80
2021/11/24 21:29:02;;;;;;;13.70;9.70;;;;;;;6.58;58.28;95450.25;4999182;28;20507;-80
2021/11/24 21:31:28;;;;;;;13.43;9.27;;;;;;;6.49;58.25;95443.25;5014965;28;20401;-80
2021/11/24 21:33:53;;;;;;;17.23;10.35;;;;;;;6.46;58.01;95454.72;5015148;28;20028;-80
2021/11/24 21:36:19;;;;;;;14.15;9.55;;;;;;;6.48;58.61;95449.41;4999058;28;20025;-80
2021/11/24 21:38:45;;;;;;;12.00;8.70;;;;;;;6.43;58.35;95423.88;5015541;28;20414;-78
2021/11/24 21:41:10;;;;;;;15.60;10.10;;;;;;;6.65;58.42;95451.38;4998797;28;20057;-79
2021/11/24 21:43:35;;;;;;;15.15;9.40;;;;;;;6.75;57.61;95449.59;5031863;28;20083;-80
2021/11/24 21:46:02;;;;;;;15.57;9.52;;;;;;;6.72;57.43;95439.50;4998814;28;20034;-80
2021/11/24 21:48:27;;;;;;;16.95;11.50;;;;;;;6.76;57.57;95443.47;4998898;28;20030;-81
2021/11/24 21:50:53;;;;;;;12.07;9.30;;;;;;;6.80;57.08;95439.69;5018472;28;20454;-79
2021/11/24 21:53:18;;;;;;;12.25;8.40;;;;;;;6.74;57.18;95439.38;4979346;28;20030;-79
2021/11/24 21:55:44;;;;;;;14.18;9.70;;;;;;;6.84;58.27;95442.00;5019929;23;20121;-80
2021/11/24 21:58:09;;;;;;;17.85;9.75;;;;;;;6.89;57.63;95443.25;5057867;28;20036;-80
2021/11/24 22:00:35;;;;;;;14.77;10.48;;;;;;;6.90;56.92;95444.06;5041137;28;20094;-80
2021/11/24 22:03:00;;;;;;;12.65;9.27;;;;;;;6.86;57.20;95445.28;5053076;28;20031;-79
2021/11/24 22:05:32;;;;;;;10.93;8.55;;;;;;;6.87;57.26;95439.97;5054385;28;20470;-79
2021/11/24 22:13:13;;;;;;;14.32;9.95;;;;;;;6.58;57.63;95439.88;5063068;28;20035;-80